createdAt,value
2023-05-05T00:00:12.035Z,16.38
2023-05-05T00:02:39.234Z,15.81
2023-05-05T00:05:06.433Z,15.94
2023-05-05T00:07:33.079Z,15.88
2023-05-05T00:09:59.660Z,16.19
2023-05-05T00:12:26.265Z,15.94
2023-05-05T00:14:52.842Z,15.81
2023-05-05T00:17:19.454Z,15.63
2023-05-05T00:19:46.209Z,15.63
2023-05-05T00:22:12.788Z,15.69
2023-05-05T00:24:39.378Z,16.06
2023-05-05T00:27:06.463Z,15.88
2023-05-05T00:29:33.126Z,15.75
2023-05-05T00:31:59.764Z,15.75
2023-05-05T00:34:26.384Z,15.56
2023-05-05T00:36:53.309Z,15.69
2023-05-05T00:39:20.207Z,15.63
2023-05-05T00:41:46.790Z,15.88
2023-05-05T00:44:13.471Z,15.75
2023-05-05T00:46:42.742Z,15.44
2023-05-05T00:49:10.150Z,15.19
2023-05-05T00:51:36.858Z,15.50
2023-05-05T00:54:03.683Z,15.63
2023-05-05T00:56:30.533Z,15.75
2023-05-05T00:58:58.395Z,15.81
2023-05-05T01:01:25.729Z,15.81
2023-05-05T01:03:52.540Z,15.81
2023-05-05T01:06:46.863Z,15.75
2023-05-05T01:09:38.848Z,15.69
2023-05-05T01:12:37.059Z,15.94
2023-05-05T01:15:26.789Z,15.94
2023-05-05T01:18:11.637Z,15.75
2023-05-05T01:20:44.772Z,15.69
2023-05-05T01:23:27.160Z,15.63
2023-05-05T01:26:31.485Z,15.63
2023-05-05T01:29:05.211Z,15.69
2023-05-05T01:31:51.762Z,15.75
2023-05-05T01:34:29.335Z,15.44
2023-05-05T01:37:10.363Z,15.38
2023-05-05T01:39:40.770Z,15.56
2023-05-05T01:42:13.942Z,15.63
2023-05-05T01:44:44.239Z,15.56
2023-05-05T01:47:18.543Z,15.63
2023-05-05T01:49:47.274Z,15.75
2023-05-05T01:52:16.057Z,15.63
2023-05-05T01:54:45.650Z,15.63
2023-05-05T01:57:14.248Z,15.63
2023-05-05T01:59:40.986Z,15.25
2023-05-05T02:02:11.014Z,15.31
2023-05-05T02:04:42.502Z,15.44
2023-05-05T02:07:12.621Z,15.44
2023-05-05T02:09:41.026Z,15.56
2023-05-05T02:12:09.879Z,15.63
2023-05-05T02:14:38.104Z,15.63
2023-05-05T02:17:05.067Z,15.75
2023-05-05T02:19:41.782Z,15.81
2023-05-05T02:22:08.868Z,15.69
2023-05-05T02:24:35.701Z,15.50
2023-05-05T02:27:05.825Z,15.38
2023-05-05T02:29:36.445Z,15.31
2023-05-05T02:32:11.668Z,15.50
2023-05-05T02:34:41.597Z,15.50
2023-05-05T02:37:13.382Z,15.56
2023-05-05T02:39:58.727Z,15.50
2023-05-05T02:42:31.613Z,15.25
2023-05-05T02:45:04.439Z,15.38
2023-05-05T02:47:36.613Z,15.06
2023-05-05T02:50:08.189Z,15.00
2023-05-05T02:52:36.095Z,14.94
2023-05-05T02:55:05.539Z,15.13
2023-05-05T02:57:38.971Z,14.88
2023-05-05T03:00:15.374Z,14.88
2023-05-05T03:02:47.786Z,14.94
2023-05-05T03:05:23.040Z,14.94
2023-05-05T03:07:59.460Z,14.63
2023-05-05T03:10:43.936Z,14.63
2023-05-05T03:13:12.613Z,14.69
2023-05-05T03:15:51.440Z,14.75
2023-05-05T03:18:22.454Z,14.56
2023-05-05T03:20:49.802Z,14.44
2023-05-05T03:23:20.812Z,14.69
2023-05-05T03:25:49.078Z,14.50
2023-05-05T03:28:16.566Z,14.25
2023-05-05T03:30:43.349Z,14.56
2023-05-05T03:33:11.501Z,14.25
2023-05-05T03:35:38.122Z,14.25
2023-05-05T03:38:04.682Z,14.06
2023-05-05T03:40:42.981Z,14.38
2023-05-05T03:43:10.678Z,14.38
2023-05-05T03:45:37.583Z,14.13
2023-05-05T03:48:04.547Z,14.19
2023-05-05T03:50:31.204Z,14.13
2023-05-05T03:52:57.795Z,14.06
2023-05-05T03:55:24.530Z,13.94
2023-05-05T03:57:51.280Z,13.69
2023-05-05T04:00:18.204Z,13.63
2023-05-05T04:02:44.831Z,13.69
2023-05-05T04:05:11.485Z,13.75
2023-05-05T04:07:38.114Z,13.63
2023-05-05T04:10:06.216Z,13.63
2023-05-05T04:12:33.036Z,13.56
2023-05-05T04:14:59.720Z,13.50
2023-05-05T04:17:26.393Z,13.50
2023-05-05T04:19:53.085Z,13.56
2023-05-05T04:22:19.698Z,13.50
2023-05-05T04:24:47.171Z,13.56
2023-05-05T04:27:13.742Z,13.56
2023-05-05T04:29:40.599Z,13.50
2023-05-05T04:32:07.328Z,13.38
2023-05-05T04:34:34.010Z,13.44
2023-05-05T04:37:00.644Z,13.38
2023-05-05T04:39:27.256Z,13.31
2023-05-05T04:41:53.876Z,13.25
2023-05-05T04:44:20.709Z,13.44
2023-05-05T04:46:47.266Z,13.50
2023-05-05T04:49:13.917Z,13.56
2023-05-05T04:51:43.549Z,13.56
2023-05-05T04:54:10.451Z,13.50
2023-05-05T04:56:37.138Z,13.44
2023-05-05T04:59:03.878Z,13.56
2023-05-05T05:01:30.495Z,13.44
2023-05-05T05:03:57.250Z,13.50
2023-05-05T05:06:24.169Z,13.50
2023-05-05T05:08:50.754Z,13.50
2023-05-05T05:11:17.394Z,13.56
2023-05-05T05:13:44.084Z,13.56
2023-05-05T05:16:11.502Z,13.63
2023-05-05T05:18:38.218Z,13.63
2023-05-05T05:21:04.960Z,13.69
2023-05-05T05:23:31.609Z,13.75
2023-05-05T05:25:58.373Z,13.81
2023-05-05T05:28:24.969Z,13.94
2023-05-05T05:30:52.647Z,13.88
2023-05-05T05:33:19.762Z,13.94
2023-05-05T05:35:46.342Z,13.94
2023-05-05T05:38:12.923Z,13.94
2023-05-05T05:40:39.603Z,14.06
2023-05-05T05:43:06.457Z,14.06
2023-05-05T05:45:33.105Z,14.00
2023-05-05T05:47:59.843Z,14.13
2023-05-05T05:50:28.573Z,14.19
2023-05-05T05:52:55.590Z,14.19
2023-05-05T05:55:22.153Z,14.25
2023-05-05T05:57:48.795Z,14.31
2023-05-05T06:00:18.513Z,14.38
2023-05-05T06:02:45.868Z,14.50
2023-05-05T06:05:13.046Z,14.56
2023-05-05T06:07:39.867Z,14.63
2023-05-05T06:10:22.686Z,14.69
2023-05-05T06:12:52.115Z,14.81
2023-05-05T06:15:18.731Z,14.94
2023-05-05T06:17:45.610Z,15.06
2023-05-05T06:20:13.856Z,15.25
2023-05-05T06:22:40.582Z,15.38
2023-05-05T06:25:07.580Z,15.50
2023-05-05T06:27:34.288Z,15.75
2023-05-05T06:30:01.174Z,15.88
2023-05-05T06:32:27.811Z,15.88
2023-05-05T06:34:54.420Z,16.13
2023-05-05T06:37:21.040Z,16.19
2023-05-05T06:39:47.630Z,16.25
2023-05-05T06:42:14.192Z,16.25
2023-05-05T06:44:40.850Z,16.44
2023-05-05T06:47:07.780Z,16.69
2023-05-05T06:49:34.504Z,16.75
2023-05-05T06:52:01.586Z,16.94
2023-05-05T06:54:28.275Z,17.06
2023-05-05T06:56:54.831Z,17.25
2023-05-05T06:59:21.471Z,17.50
2023-05-05T07:01:48.096Z,17.38
2023-05-05T07:04:14.723Z,17.38
2023-05-05T07:06:41.364Z,17.63
2023-05-05T07:09:07.962Z,17.63
2023-05-05T07:11:35.051Z,17.63
2023-05-05T07:14:01.671Z,17.69
2023-05-05T07:16:28.352Z,18.06
2023-05-05T07:18:55.061Z,18.19
2023-05-05T07:21:21.683Z,18.25
2023-05-05T07:23:48.297Z,18.50
2023-05-05T07:26:15.734Z,18.19
2023-05-05T07:28:43.118Z,18.19
2023-05-05T07:31:09.968Z,18.25
2023-05-05T07:33:36.557Z,18.56
2023-05-05T07:36:03.466Z,18.88
2023-05-05T07:38:30.046Z,19.06
2023-05-05T07:40:56.599Z,19.44
2023-05-05T07:43:23.207Z,19.25
2023-05-05T07:45:49.830Z,19.25
2023-05-05T07:48:16.587Z,19.75
2023-05-05T07:50:43.197Z,19.56
2023-05-05T07:53:14.308Z,19.50
2023-05-05T07:55:41.427Z,19.88
2023-05-05T07:58:08.512Z,19.56
2023-05-05T08:00:35.570Z,19.38
2023-05-05T08:03:02.383Z,19.75
2023-05-05T08:05:29.041Z,20.38
2023-05-05T08:07:55.712Z,20.38
2023-05-05T08:10:23.420Z,20.63
2023-05-05T08:12:50.206Z,21.19
2023-05-05T08:15:16.905Z,21.38
2023-05-05T08:17:52.097Z,20.63
2023-05-05T08:20:20.454Z,20.19
2023-05-05T08:22:47.631Z,20.06
2023-05-05T08:25:14.963Z,21.13
2023-05-05T08:27:43.057Z,21.44
2023-05-05T08:30:10.936Z,21.69
2023-05-05T08:32:38.385Z,21.25
2023-05-05T08:35:06.569Z,21.81
2023-05-05T08:37:33.590Z,21.44
2023-05-05T08:40:00.381Z,20.81
2023-05-05T08:42:37.081Z,20.69
2023-05-05T08:45:08.146Z,20.63
2023-05-05T08:47:39.216Z,20.44
2023-05-05T08:50:07.407Z,20.56
2023-05-05T08:52:43.997Z,20.81
2023-05-05T08:55:27.989Z,20.56
2023-05-05T08:58:01.007Z,20.50
2023-05-05T09:00:28.076Z,20.13
2023-05-05T09:02:57.718Z,19.63
2023-05-05T09:05:25.831Z,20.13
2023-05-05T09:07:52.712Z,20.19
2023-05-05T09:10:19.617Z,19.94
2023-05-05T09:12:46.774Z,20.13
2023-05-05T09:15:15.291Z,20.00
2023-05-05T09:17:42.369Z,19.81
2023-05-05T09:20:12.371Z,19.94
2023-05-05T09:22:41.628Z,19.75
2023-05-05T09:25:13.342Z,19.50
2023-05-05T09:27:43.042Z,19.38
2023-05-05T09:30:14.134Z,19.56
2023-05-05T09:32:44.957Z,19.88
2023-05-05T09:35:11.664Z,19.94
2023-05-05T09:37:38.753Z,19.56
2023-05-05T09:40:07.305Z,19.44
2023-05-05T09:42:36.317Z,19.19
2023-05-05T09:45:03.782Z,19.13
2023-05-05T09:47:35.628Z,19.25
2023-05-05T09:50:03.048Z,18.94
2023-05-05T09:52:30.747Z,19.19
2023-05-05T09:54:57.644Z,18.88
2023-05-05T09:57:32.357Z,19.13
2023-05-05T10:00:01.420Z,19.00
2023-05-05T10:02:36.324Z,19.13
2023-05-05T10:05:13.825Z,19.06
2023-05-05T10:07:42.923Z,18.81
2023-05-05T10:10:12.345Z,18.75
2023-05-05T10:12:39.464Z,18.94
2023-05-05T10:15:07.881Z,19.25
2023-05-05T10:18:05.124Z,18.69
2023-05-05T10:20:34.256Z,17.00
2023-05-05T10:23:04.859Z,15.75
2023-05-05T10:25:41.647Z,15.94
2023-05-05T10:28:16.505Z,16.00
2023-05-05T10:30:48.145Z,16.19
2023-05-05T10:36:01.640Z,16.56
2023-05-05T10:38:33.823Z,16.50
2023-05-05T10:41:02.009Z,16.63
2023-05-05T10:43:30.677Z,16.69
2023-05-05T10:45:58.900Z,16.56
2023-05-05T10:48:35.468Z,16.44
2023-05-05T10:51:39.272Z,16.06
2023-05-05T10:54:23.115Z,16.50
2023-05-05T10:56:51.150Z,16.44
2023-05-05T10:59:36.554Z,16.25
2023-05-05T11:02:25.293Z,16.13
2023-05-05T11:05:21.103Z,15.56
2023-05-05T11:07:50.495Z,15.44
2023-05-05T11:10:23.627Z,15.44
2023-05-05T11:12:59.946Z,15.31
2023-05-05T11:15:26.690Z,15.25
2023-05-05T11:17:57.183Z,15.25
2023-05-05T11:20:36.197Z,15.38
2023-05-05T11:23:02.889Z,15.81
2023-05-05T11:25:36.154Z,15.69
2023-05-05T11:28:06.557Z,15.75
2023-05-05T11:30:33.271Z,15.56
2023-05-05T11:33:30.878Z,15.44
2023-05-05T11:36:04.196Z,14.94
2023-05-05T11:39:10.085Z,15.00
2023-05-05T11:42:10.134Z,14.75
2023-05-05T11:44:37.648Z,14.75
2023-05-05T11:47:04.405Z,14.75
2023-05-05T11:49:38.218Z,14.94
2023-05-05T11:52:13.097Z,14.81
2023-05-05T11:54:47.448Z,14.38
2023-05-05T11:57:15.985Z,14.31
2023-05-05T11:59:54.811Z,14.06
2023-05-05T12:02:23.133Z,14.00
2023-05-05T12:04:50.897Z,14.13
2023-05-05T12:07:19.322Z,14.25
2023-05-05T12:09:48.168Z,14.50
2023-05-05T12:12:15.997Z,14.50
2023-05-05T12:14:51.724Z,14.75
2023-05-05T12:17:20.742Z,14.69
2023-05-05T12:19:49.400Z,14.56
2023-05-05T12:22:26.616Z,14.69
2023-05-05T12:24:55.189Z,14.63
2023-05-05T12:27:22.361Z,14.63
2023-05-05T12:29:49.354Z,14.63
2023-05-05T12:32:23.894Z,14.81
2023-05-05T12:34:57.265Z,14.81
2023-05-05T12:37:25.952Z,14.44
2023-05-05T12:39:56.467Z,14.75
2023-05-05T12:42:23.421Z,14.75
2023-05-05T12:44:50.562Z,14.50
2023-05-05T12:47:33.215Z,14.75
2023-05-05T12:50:02.899Z,14.94
2023-05-05T12:52:43.635Z,14.88
2023-05-05T12:55:11.595Z,14.94
2023-05-05T12:57:39.257Z,14.50
2023-05-05T13:00:15.398Z,14.50
2023-05-05T13:02:42.221Z,14.69
2023-05-05T13:05:09.624Z,14.69
2023-05-05T13:07:37.897Z,14.75
2023-05-05T13:10:10.518Z,14.88
2023-05-05T13:12:37.593Z,14.63
2023-05-05T13:15:04.552Z,14.56
2023-05-05T13:17:32.811Z,14.63
2023-05-05T13:20:01.231Z,14.31
2023-05-05T13:22:27.768Z,14.38
2023-05-05T13:24:54.418Z,14.75
2023-05-05T13:27:21.231Z,14.50
2023-05-05T13:29:48.116Z,14.25
2023-05-05T13:32:14.743Z,14.38
2023-05-05T13:34:42.490Z,14.25
2023-05-05T13:37:09.194Z,14.56
2023-05-05T13:39:36.861Z,14.50
2023-05-05T13:42:03.571Z,14.19
2023-05-05T13:44:30.187Z,14.19
2023-05-05T13:46:56.938Z,14.38
2023-05-05T13:49:23.796Z,14.56
2023-05-05T13:51:50.788Z,14.69
2023-05-05T13:54:17.464Z,14.63
2023-05-05T13:56:44.318Z,14.69
2023-05-05T13:59:10.911Z,14.75
2023-05-05T14:01:38.037Z,14.44
2023-05-05T14:04:05.869Z,14.38
2023-05-05T14:06:33.602Z,14.06
2023-05-05T14:09:00.582Z,14.44
2023-05-05T14:11:27.402Z,14.25
2023-05-05T14:13:54.122Z,14.25
2023-05-05T14:16:20.791Z,14.63
2023-05-05T14:18:47.466Z,14.56
2023-05-05T14:21:14.157Z,14.75
2023-05-05T14:23:40.776Z,14.75
2023-05-05T14:26:08.921Z,14.56
2023-05-05T14:28:35.896Z,14.56
2023-05-05T14:31:02.465Z,14.56
2023-05-05T14:33:29.054Z,14.31
2023-05-05T14:35:55.888Z,14.56
2023-05-05T14:38:22.582Z,14.63
2023-05-05T14:40:49.375Z,14.75
2023-05-05T14:43:15.958Z,14.81
2023-05-05T14:45:44.183Z,14.81
2023-05-05T14:48:10.885Z,14.81
2023-05-05T14:50:38.553Z,14.88
2023-05-05T14:53:05.360Z,14.75
2023-05-05T14:55:32.922Z,14.63
2023-05-05T14:57:59.572Z,14.81
2023-05-05T15:00:26.849Z,15.00
2023-05-05T15:02:53.570Z,14.94
2023-05-05T15:05:20.376Z,14.94
2023-05-05T15:07:47.015Z,14.81
2023-05-05T15:10:13.639Z,14.88
2023-05-05T15:12:40.665Z,14.56
2023-05-05T15:15:08.609Z,14.94
2023-05-05T15:17:37.393Z,14.75
2023-05-05T15:20:05.941Z,14.88
2023-05-05T15:22:32.536Z,14.81
2023-05-05T15:24:59.636Z,15.00
2023-05-05T15:27:26.332Z,15.00
2023-05-05T15:29:52.968Z,15.13
2023-05-05T15:32:19.524Z,15.19
2023-05-05T15:34:48.333Z,15.31
2023-05-05T15:37:16.259Z,15.25
2023-05-05T15:39:42.911Z,15.13
2023-05-05T15:42:10.166Z,15.25
2023-05-05T15:44:36.782Z,15.19
2023-05-05T15:47:03.696Z,15.13
2023-05-05T15:49:30.397Z,15.19
2023-05-05T15:51:56.984Z,15.06
2023-05-05T15:54:23.723Z,15.38
2023-05-05T15:56:50.311Z,15.19
2023-05-05T15:59:16.916Z,15.25
2023-05-05T16:01:43.633Z,15.38
2023-05-05T16:04:10.246Z,15.25
2023-05-05T16:06:36.810Z,15.19
2023-05-05T16:09:03.841Z,15.19
2023-05-05T16:11:30.832Z,15.38
2023-05-05T16:13:57.439Z,15.38
2023-05-05T16:16:24.061Z,15.44
2023-05-05T16:18:50.791Z,15.19
2023-05-05T16:21:17.488Z,15.44
2023-05-05T16:23:44.103Z,15.25
2023-05-05T16:26:10.827Z,15.31
2023-05-05T16:28:37.680Z,15.38
2023-05-05T16:31:04.525Z,15.50
2023-05-05T16:33:31.344Z,15.25
2023-05-05T16:35:57.987Z,15.38
2023-05-05T16:38:24.605Z,15.44
2023-05-05T16:40:51.263Z,15.50
2023-05-05T16:43:19.421Z,15.44
2023-05-05T16:45:46.588Z,15.56
2023-05-05T16:48:14.624Z,15.38
2023-05-05T16:50:41.397Z,15.44
2023-05-05T16:53:08.937Z,15.50
2023-05-05T16:55:35.916Z,15.56
2023-05-05T16:58:02.700Z,15.56
2023-05-05T17:00:29.533Z,15.56
2023-05-05T17:02:56.922Z,15.44
2023-05-05T17:05:23.759Z,15.44
2023-05-05T17:07:50.659Z,15.38
2023-05-05T17:10:17.247Z,15.44
2023-05-05T17:12:43.924Z,15.50
2023-05-05T17:15:10.990Z,15.44
2023-05-05T17:17:37.820Z,15.25
2023-05-05T17:20:05.204Z,15.25
2023-05-05T17:22:32.047Z,15.44
2023-05-05T17:24:58.712Z,15.56
2023-05-05T17:27:25.391Z,15.56
2023-05-05T17:29:51.997Z,15.44
2023-05-05T17:32:18.554Z,15.50
2023-05-05T17:34:45.180Z,15.56
2023-05-05T17:37:11.736Z,15.50
2023-05-05T17:39:38.310Z,15.38
2023-05-05T17:42:05.177Z,15.38
2023-05-05T17:44:32.625Z,15.44
2023-05-05T17:46:59.337Z,15.50
2023-05-05T17:49:26.188Z,15.50
2023-05-05T17:51:52.743Z,15.44
2023-05-05T17:54:19.358Z,15.38
2023-05-05T17:56:46.126Z,15.38
2023-05-05T17:59:12.867Z,15.50
2023-05-05T18:01:39.573Z,15.38
2023-05-05T18:04:06.280Z,15.44
2023-05-05T18:06:33.040Z,15.44
2023-05-05T18:08:59.632Z,15.25
2023-05-05T18:11:30.884Z,15.44
2023-05-05T18:13:57.630Z,15.56
2023-05-05T18:16:24.261Z,15.38
2023-05-05T18:18:50.987Z,15.19
2023-05-05T18:21:17.624Z,15.25
2023-05-05T18:23:44.234Z,15.25
2023-05-05T18:26:10.921Z,15.31
2023-05-05T18:28:37.534Z,15.31
2023-05-05T18:31:04.255Z,15.19
2023-05-05T18:33:31.008Z,15.25
2023-05-05T18:35:57.891Z,15.31
2023-05-05T18:38:24.726Z,15.50
2023-05-05T18:40:51.421Z,15.38
2023-05-05T18:43:18.107Z,15.25
2023-05-05T18:45:44.792Z,15.38
2023-05-05T18:48:11.777Z,15.31
2023-05-05T18:50:38.566Z,15.25
2023-05-05T18:53:05.284Z,15.19
2023-05-05T18:55:31.892Z,15.38
2023-05-05T18:57:58.500Z,15.38
2023-05-05T19:00:25.154Z,15.50
2023-05-05T19:02:51.953Z,15.44
2023-05-05T19:05:18.705Z,15.38
2023-05-05T19:07:45.658Z,15.00
2023-05-05T19:10:12.336Z,14.88
2023-05-05T19:12:39.067Z,15.06
2023-05-05T19:15:06.718Z,15.06
2023-05-05T19:17:33.671Z,14.94
2023-05-05T19:20:00.609Z,14.69
2023-05-05T19:22:27.313Z,14.69
2023-05-05T19:24:53.898Z,14.88
2023-05-05T19:27:21.469Z,14.63
2023-05-05T19:29:52.249Z,14.56
2023-05-05T19:32:20.816Z,13.94
2023-05-05T19:34:47.822Z,14.38
2023-05-05T19:37:14.430Z,14.13
2023-05-05T19:39:43.097Z,14.00
2023-05-05T19:42:09.752Z,14.25
2023-05-05T19:44:36.413Z,14.19
2023-05-05T19:47:03.177Z,13.94
2023-05-05T19:49:29.741Z,14.13
2023-05-05T19:51:58.775Z,14.25
2023-05-05T19:54:27.002Z,14.38
2023-05-05T19:56:55.273Z,14.25
2023-05-05T19:59:22.848Z,14.25
2023-05-05T20:01:49.740Z,14.25
2023-05-05T20:04:16.390Z,14.31
2023-05-05T20:06:42.975Z,14.25
2023-05-05T20:09:09.649Z,14.19
2023-05-05T20:11:36.404Z,14.19
2023-05-05T20:14:03.048Z,14.13
2023-05-05T20:16:29.996Z,14.13
2023-05-05T20:18:56.781Z,14.19
2023-05-05T20:21:23.435Z,14.13
2023-05-05T20:23:50.094Z,14.25
2023-05-05T20:26:16.965Z,13.88
2023-05-05T20:28:45.288Z,13.31
2023-05-05T20:31:15.058Z,13.06
2023-05-05T20:33:41.746Z,12.94
2023-05-05T20:36:08.392Z,13.38
2023-05-05T20:38:35.050Z,13.63
2023-05-05T20:41:01.688Z,13.44
2023-05-05T20:43:28.364Z,13.31
2023-05-05T20:45:55.169Z,13.56
2023-05-05T20:48:21.783Z,13.56
2023-05-05T20:50:48.456Z,13.31
2023-05-05T20:53:18.814Z,13.13
2023-05-05T20:55:45.487Z,13.13
2023-05-05T20:58:12.227Z,13.25
2023-05-05T21:00:38.914Z,13.06
2023-05-05T21:03:06.003Z,13.13
2023-05-05T21:05:32.786Z,13.25
2023-05-05T21:08:01.151Z,13.00
2023-05-05T21:10:28.875Z,12.94
2023-05-05T21:12:55.620Z,13.19
2023-05-05T21:15:22.286Z,13.13
2023-05-05T21:17:48.965Z,13.13
2023-05-05T21:20:16.375Z,12.75
2023-05-05T21:22:43.048Z,12.75
2023-05-05T21:25:18.227Z,12.56
2023-05-05T21:27:46.196Z,12.75
2023-05-05T21:30:13.402Z,12.81
2023-05-05T21:32:40.716Z,13.06
2023-05-05T21:35:08.935Z,13.06
2023-05-05T21:37:37.905Z,13.00
2023-05-05T21:40:06.249Z,12.94
2023-05-05T21:42:32.876Z,12.69
2023-05-05T21:44:59.521Z,12.13
2023-05-05T21:47:27.701Z,12.25
2023-05-05T21:49:54.293Z,12.56
2023-05-05T21:52:20.975Z,12.69
2023-05-05T21:54:47.645Z,12.69
2023-05-05T21:57:14.284Z,12.50
2023-05-05T21:59:41.286Z,12.19
2023-05-05T22:02:07.928Z,11.94
2023-05-05T22:04:34.525Z,11.94
2023-05-05T22:07:01.436Z,12.13
2023-05-05T22:09:28.101Z,12.31
2023-05-05T22:11:54.837Z,12.56
2023-05-05T22:14:21.538Z,12.69
2023-05-05T22:16:48.214Z,12.75
2023-05-05T22:19:14.807Z,12.69
2023-05-05T22:21:41.409Z,12.63
2023-05-05T22:24:08.027Z,12.63
2023-05-05T22:26:34.654Z,12.06
2023-05-05T22:29:01.515Z,12.31
2023-05-05T22:31:29.249Z,12.19
2023-05-05T22:33:55.956Z,12.44
2023-05-05T22:36:22.944Z,12.63
2023-05-05T22:38:49.544Z,12.63
2023-05-05T22:41:16.139Z,12.56
2023-05-05T22:43:42.831Z,12.56
2023-05-05T22:46:09.720Z,12.69
2023-05-05T22:48:36.387Z,12.56
2023-05-05T22:51:03.443Z,12.44
2023-05-05T22:53:30.087Z,12.56
2023-05-05T22:55:58.304Z,12.63
2023-05-05T22:58:25.696Z,12.69
2023-05-05T23:00:52.422Z,12.63
2023-05-05T23:03:19.063Z,12.50
2023-05-05T23:05:45.940Z,12.63
2023-05-05T23:08:12.556Z,12.63
2023-05-05T23:10:39.228Z,12.69
2023-05-05T23:13:05.973Z,12.69
2023-05-05T23:15:32.700Z,12.50
2023-05-05T23:17:59.406Z,12.50
2023-05-05T23:20:26.142Z,12.50
2023-05-05T23:22:52.744Z,12.38
2023-05-05T23:25:19.337Z,12.38
2023-05-05T23:27:45.940Z,12.38
2023-05-05T23:30:12.961Z,12.31
2023-05-05T23:32:39.588Z,12.38
2023-05-05T23:35:06.682Z,12.44
2023-05-05T23:37:33.249Z,12.38
2023-05-05T23:39:59.955Z,12.25
2023-05-05T23:42:26.547Z,11.63
2023-05-05T23:44:53.151Z,11.50
2023-05-05T23:47:19.787Z,11.63
2023-05-05T23:49:46.496Z,11.63
2023-05-05T23:52:13.158Z,11.44
2023-05-05T23:54:40.200Z,11.56
2023-05-05T23:57:06.769Z,12.00
2023-05-05T23:59:33.325Z,11.81
